sensor_id;sensor_type;location;lat;lon;timestamp;P1;durP1;ratioP1;P2;durP2;ratioP2
63284;SDS011;49409;55.708;37.522;2022-07-18T00:00:13;5.07;;;2.65;;
63284;SDS011;49409;55.708;37.522;2022-07-18T00:02:39;4.78;;;2.47;;
63284;SDS011;49409;55.708;37.522;2022-07-18T00:05:05;4.10;;;2.40;;
63284;SDS011;49409;55.708;37.522;2022-07-18T00:07:32;4.13;;;2.40;;
63284;SDS011;49409;55.708;37.522;2022-07-18T00:09:57;4.50;;;2.90;;
63284;SDS011;49409;55.708;37.522;2022-07-18T00:12:23;5.82;;;2.65;;
63284;SDS011;49409;55.708;37.522;2022-07-18T00:14:48;5.05;;;2.78;;
63284;SDS011;49409;55.708;37.522;2022-07-18T00:17:14;5.40;;;2.95;;
63284;SDS011;49409;55.708;37.522;2022-07-18T00:19:39;5.97;;;2.80;;
63284;SDS011;49409;55.708;37.522;2022-07-18T00:22:05;4.78;;;2.63;;
63284;SDS011;49409;55.708;37.522;2022-07-18T00:24:31;5.50;;;2.53;;
63284;SDS011;49409;55.708;37.522;2022-07-18T00:26:57;4.63;;;2.53;;
63284;SDS011;49409;55.708;37.522;2022-07-18T00:29:24;3.78;;;2.13;;
63284;SDS011;49409;55.708;37.522;2022-07-18T00:31:50;6.32;;;2.85;;
63284;SDS011;49409;55.708;37.522;2022-07-18T00:34:16;5.25;;;2.75;;
63284;SDS011;49409;55.708;37.522;2022-07-18T00:36:41;5.22;;;2.70;;
63284;SDS011;49409;55.708;37.522;2022-07-18T00:39:07;6.18;;;2.60;;
63284;SDS011;49409;55.708;37.522;2022-07-18T00:41:32;4.80;;;2.60;;
63284;SDS011;49409;55.708;37.522;2022-07-18T00:43:58;4.20;;;2.20;;
63284;SDS011;49409;55.708;37.522;2022-07-18T00:46:24;6.47;;;2.05;;
63284;SDS011;49409;55.708;37.522;2022-07-18T00:48:51;3.50;;;2.30;;
63284;SDS011;49409;55.708;37.522;2022-07-18T00:51:17;5.65;;;2.40;;
63284;SDS011;49409;55.708;37.522;2022-07-18T00:53:44;3.92;;;2.67;;
63284;SDS011;49409;55.708;37.522;2022-07-18T00:56:11;5.00;;;2.22;;
63284;SDS011;49409;55.708;37.522;2022-07-18T00:58:38;4.20;;;2.55;;
63284;SDS011;49409;55.708;37.522;2022-07-18T01:01:03;4.28;;;2.38;;
63284;SDS011;49409;55.708;37.522;2022-07-18T01:03:48;5.57;;;2.35;;
63284;SDS011;49409;55.708;37.522;2022-07-18T01:06:13;4.32;;;2.30;;
63284;SDS011;49409;55.708;37.522;2022-07-18T01:08:41;5.22;;;2.60;;
63284;SDS011;49409;55.708;37.522;2022-07-18T01:11:07;3.63;;;2.15;;
63284;SDS011;49409;55.708;37.522;2022-07-18T01:13:33;4.35;;;2.60;;
63284;SDS011;49409;55.708;37.522;2022-07-18T01:15:59;4.70;;;2.60;;
63284;SDS011;49409;55.708;37.522;2022-07-18T01:18:25;4.53;;;2.10;;
63284;SDS011;49409;55.708;37.522;2022-07-18T01:20:51;4.50;;;2.30;;
63284;SDS011;49409;55.708;37.522;2022-07-18T01:23:16;3.78;;;2.40;;
63284;SDS011;49409;55.708;37.522;2022-07-18T01:25:43;4.28;;;2.25;;
63284;SDS011;49409;55.708;37.522;2022-07-18T01:28:08;4.75;;;2.88;;
63284;SDS011;49409;55.708;37.522;2022-07-18T01:30:34;4.25;;;2.45;;
63284;SDS011;49409;55.708;37.522;2022-07-18T01:33:00;5.03;;;2.45;;
63284;SDS011;49409;55.708;37.522;2022-07-18T01:35:28;5.57;;;2.60;;
63284;SDS011;49409;55.708;37.522;2022-07-18T01:37:56;4.22;;;2.63;;
63284;SDS011;49409;55.708;37.522;2022-07-18T01:40:23;4.53;;;2.60;;
63284;SDS011;49409;55.708;37.522;2022-07-18T01:42:49;4.03;;;2.40;;
63284;SDS011;49409;55.708;37.522;2022-07-18T01:45:15;4.45;;;2.28;;
63284;SDS011;49409;55.708;37.522;2022-07-18T01:47:41;10.38;;;2.78;;
63284;SDS011;49409;55.708;37.522;2022-07-18T01:50:08;3.83;;;2.58;;
63284;SDS011;49409;55.708;37.522;2022-07-18T01:52:35;5.65;;;2.70;;
63284;SDS011;49409;55.708;37.522;2022-07-18T01:55:01;4.82;;;2.55;;
63284;SDS011;49409;55.708;37.522;2022-07-18T01:57:27;3.55;;;2.15;;
63284;SDS011;49409;55.708;37.522;2022-07-18T01:59:52;4.93;;;2.83;;
63284;SDS011;49409;55.708;37.522;2022-07-18T02:02:18;6.20;;;2.60;;
63284;SDS011;49409;55.708;37.522;2022-07-18T02:04:43;4.68;;;2.72;;
63284;SDS011;49409;55.708;37.522;2022-07-18T02:07:24;3.85;;;2.45;;
63284;SDS011;49409;55.708;37.522;2022-07-18T02:09:54;3.60;;;2.15;;
63284;SDS011;49409;55.708;37.522;2022-07-18T02:12:20;5.05;;;2.60;;
63284;SDS011;49409;55.708;37.522;2022-07-18T02:14:46;5.18;;;2.50;;
63284;SDS011;49409;55.708;37.522;2022-07-18T02:17:11;4.82;;;2.67;;
63284;SDS011;49409;55.708;37.522;2022-07-18T02:19:37;4.93;;;2.72;;
63284;SDS011;49409;55.708;37.522;2022-07-18T02:22:02;4.53;;;2.80;;
63284;SDS011;49409;55.708;37.522;2022-07-18T02:24:28;5.43;;;2.80;;
63284;SDS011;49409;55.708;37.522;2022-07-18T02:26:54;5.78;;;2.83;;
63284;SDS011;49409;55.708;37.522;2022-07-18T02:29:19;3.70;;;2.50;;
63284;SDS011;49409;55.708;37.522;2022-07-18T02:31:45;4.85;;;2.65;;
63284;SDS011;49409;55.708;37.522;2022-07-18T02:34:10;3.72;;;2.40;;
63284;SDS011;49409;55.708;37.522;2022-07-18T02:36:36;5.10;;;2.60;;
63284;SDS011;49409;55.708;37.522;2022-07-18T02:39:03;3.10;;;2.33;;
63284;SDS011;49409;55.708;37.522;2022-07-18T02:41:29;3.50;;;2.42;;
63284;SDS011;49409;55.708;37.522;2022-07-18T02:43:55;5.55;;;2.78;;
63284;SDS011;49409;55.708;37.522;2022-07-18T02:46:20;4.45;;;2.75;;
63284;SDS011;49409;55.708;37.522;2022-07-18T02:48:46;3.53;;;2.10;;
63284;SDS011;49409;55.708;37.522;2022-07-18T02:51:11;3.15;;;2.10;;
63284;SDS011;49409;55.708;37.522;2022-07-18T02:53:37;3.78;;;2.10;;
63284;SDS011;49409;55.708;37.522;2022-07-18T02:56:02;5.68;;;2.65;;
63284;SDS011;49409;55.708;37.522;2022-07-18T02:58:28;3.88;;;2.13;;
63284;SDS011;49409;55.708;37.522;2022-07-18T03:00:54;3.35;;;2.25;;
63284;SDS011;49409;55.708;37.522;2022-07-18T03:03:19;4.07;;;2.40;;
63284;SDS011;49409;55.708;37.522;2022-07-18T03:05:45;4.97;;;2.30;;
63284;SDS011;49409;55.708;37.522;2022-07-18T03:08:10;3.83;;;2.00;;
63284;SDS011;49409;55.708;37.522;2022-07-18T03:10:36;4.40;;;2.05;;
63284;SDS011;49409;55.708;37.522;2022-07-18T03:13:01;2.53;;;2.00;;
63284;SDS011;49409;55.708;37.522;2022-07-18T03:15:27;3.95;;;2.20;;
63284;SDS011;49409;55.708;37.522;2022-07-18T03:17:52;4.05;;;2.33;;
63284;SDS011;49409;55.708;37.522;2022-07-18T03:20:18;3.00;;;1.95;;
63284;SDS011;49409;55.708;37.522;2022-07-18T03:22:43;3.42;;;1.63;;
63284;SDS011;49409;55.708;37.522;2022-07-18T03:25:09;5.03;;;2.25;;
63284;SDS011;49409;55.708;37.522;2022-07-18T03:27:35;3.40;;;1.88;;
63284;SDS011;49409;55.708;37.522;2022-07-18T03:30:00;3.17;;;2.00;;
63284;SDS011;49409;55.708;37.522;2022-07-18T03:32:26;2.95;;;1.92;;
63284;SDS011;49409;55.708;37.522;2022-07-18T03:34:51;4.43;;;2.15;;
63284;SDS011;49409;55.708;37.522;2022-07-18T03:37:17;5.25;;;2.33;;
63284;SDS011;49409;55.708;37.522;2022-07-18T03:39:42;3.70;;;2.00;;
63284;SDS011;49409;55.708;37.522;2022-07-18T03:42:07;3.63;;;1.80;;
63284;SDS011;49409;55.708;37.522;2022-07-18T03:44:33;4.07;;;2.35;;
63284;SDS011;49409;55.708;37.522;2022-07-18T03:46:59;3.63;;;1.90;;
63284;SDS011;49409;55.708;37.522;2022-07-18T03:49:24;2.70;;;1.88;;
63284;SDS011;49409;55.708;37.522;2022-07-18T03:51:49;4.53;;;2.03;;
63284;SDS011;49409;55.708;37.522;2022-07-18T03:54:15;1.40;;;1.30;;
63284;SDS011;49409;55.708;37.522;2022-07-18T03:56:41;2.42;;;1.73;;
63284;SDS011;49409;55.708;37.522;2022-07-18T03:59:06;2.53;;;1.88;;
63284;SDS011;49409;55.708;37.522;2022-07-18T04:01:32;3.38;;;1.50;;
63284;SDS011;49409;55.708;37.522;2022-07-18T04:03:58;2.97;;;1.77;;
63284;SDS011;49409;55.708;37.522;2022-07-18T04:06:23;3.75;;;1.60;;
63284;SDS011;49409;55.708;37.522;2022-07-18T04:08:49;4.05;;;2.08;;
63284;SDS011;49409;55.708;37.522;2022-07-18T04:11:15;3.03;;;1.67;;
63284;SDS011;49409;55.708;37.522;2022-07-18T04:13:40;3.25;;;1.48;;
63284;SDS011;49409;55.708;37.522;2022-07-18T04:16:06;3.45;;;1.95;;
63284;SDS011;49409;55.708;37.522;2022-07-18T04:18:31;2.33;;;1.40;;
63284;SDS011;49409;55.708;37.522;2022-07-18T04:20:57;2.95;;;1.63;;
63284;SDS011;49409;55.708;37.522;2022-07-18T04:23:22;2.28;;;1.63;;
63284;SDS011;49409;55.708;37.522;2022-07-18T04:25:48;3.53;;;1.73;;
63284;SDS011;49409;55.708;37.522;2022-07-18T04:28:14;3.72;;;1.70;;
63284;SDS011;49409;55.708;37.522;2022-07-18T04:30:40;3.55;;;1.70;;
63284;SDS011;49409;55.708;37.522;2022-07-18T04:33:07;2.90;;;1.50;;
63284;SDS011;49409;55.708;37.522;2022-07-18T04:35:33;3.42;;;1.80;;
63284;SDS011;49409;55.708;37.522;2022-07-18T04:38:04;3.75;;;2.20;;
63284;SDS011;49409;55.708;37.522;2022-07-18T04:40:31;3.85;;;1.83;;
63284;SDS011;49409;55.708;37.522;2022-07-18T04:42:56;3.80;;;1.75;;
63284;SDS011;49409;55.708;37.522;2022-07-18T04:45:22;4.90;;;2.03;;
63284;SDS011;49409;55.708;37.522;2022-07-18T04:47:51;3.47;;;1.90;;
63284;SDS011;49409;55.708;37.522;2022-07-18T04:50:20;2.58;;;1.77;;
63284;SDS011;49409;55.708;37.522;2022-07-18T04:52:47;3.80;;;1.85;;
63284;SDS011;49409;55.708;37.522;2022-07-18T04:55:13;3.60;;;1.83;;
63284;SDS011;49409;55.708;37.522;2022-07-18T04:57:40;3.63;;;2.30;;
63284;SDS011;49409;55.708;37.522;2022-07-18T05:00:08;3.53;;;2.00;;
63284;SDS011;49409;55.708;37.522;2022-07-18T05:02:44;5.53;;;2.20;;
63284;SDS011;49409;55.708;37.522;2022-07-18T05:05:13;2.83;;;1.65;;
63284;SDS011;49409;55.708;37.522;2022-07-18T05:07:41;3.70;;;2.15;;
63284;SDS011;49409;55.708;37.522;2022-07-18T05:10:07;2.63;;;2.03;;
63284;SDS011;49409;55.708;37.522;2022-07-18T05:12:35;4.78;;;2.42;;
63284;SDS011;49409;55.708;37.522;2022-07-18T05:15:04;3.05;;;2.20;;
63284;SDS011;49409;55.708;37.522;2022-07-18T05:17:30;4.45;;;2.03;;
63284;SDS011;49409;55.708;37.522;2022-07-18T05:19:56;3.15;;;1.83;;
63284;SDS011;49409;55.708;37.522;2022-07-18T05:22:22;3.75;;;2.05;;
63284;SDS011;49409;55.708;37.522;2022-07-18T05:24:47;4.00;;;2.00;;
63284;SDS011;49409;55.708;37.522;2022-07-18T05:27:13;4.68;;;1.88;;
63284;SDS011;49409;55.708;37.522;2022-07-18T05:29:38;2.92;;;1.98;;
63284;SDS011;49409;55.708;37.522;2022-07-18T05:32:04;4.82;;;2.35;;
63284;SDS011;49409;55.708;37.522;2022-07-18T05:34:30;4.38;;;1.92;;
63284;SDS011;49409;55.708;37.522;2022-07-18T05:36:56;5.78;;;2.13;;
63284;SDS011;49409;55.708;37.522;2022-07-18T05:39:21;5.35;;;2.38;;
63284;SDS011;49409;55.708;37.522;2022-07-18T05:41:47;3.90;;;2.40;;
63284;SDS011;49409;55.708;37.522;2022-07-18T05:44:12;5.85;;;2.30;;
63284;SDS011;49409;55.708;37.522;2022-07-18T05:46:38;4.15;;;2.42;;
63284;SDS011;49409;55.708;37.522;2022-07-18T05:49:03;4.30;;;2.03;;
63284;SDS011;49409;55.708;37.522;2022-07-18T05:51:29;3.92;;;2.20;;
63284;SDS011;49409;55.708;37.522;2022-07-18T05:53:54;3.72;;;2.58;;
63284;SDS011;49409;55.708;37.522;2022-07-18T05:56:20;4.07;;;2.63;;
63284;SDS011;49409;55.708;37.522;2022-07-18T05:58:45;4.57;;;2.45;;
63284;SDS011;49409;55.708;37.522;2022-07-18T06:01:11;5.00;;;2.20;;
63284;SDS011;49409;55.708;37.522;2022-07-18T06:03:36;3.92;;;1.92;;
63284;SDS011;49409;55.708;37.522;2022-07-18T06:06:02;3.58;;;2.30;;
63284;SDS011;49409;55.708;37.522;2022-07-18T06:08:27;2.83;;;2.05;;
63284;SDS011;49409;55.708;37.522;2022-07-18T06:10:53;3.58;;;2.00;;
63284;SDS011;49409;55.708;37.522;2022-07-18T06:13:18;3.35;;;1.83;;
63284;SDS011;49409;55.708;37.522;2022-07-18T06:15:44;3.35;;;2.03;;
63284;SDS011;49409;55.708;37.522;2022-07-18T06:18:10;3.10;;;1.90;;
63284;SDS011;49409;55.708;37.522;2022-07-18T06:20:35;5.28;;;2.80;;
63284;SDS011;49409;55.708;37.522;2022-07-18T06:23:01;4.28;;;2.20;;
63284;SDS011;49409;55.708;37.522;2022-07-18T06:25:26;4.85;;;2.67;;
63284;SDS011;49409;55.708;37.522;2022-07-18T06:27:52;4.63;;;2.38;;
63284;SDS011;49409;55.708;37.522;2022-07-18T06:30:17;4.28;;;2.05;;
63284;SDS011;49409;55.708;37.522;2022-07-18T06:32:43;4.38;;;2.47;;
63284;SDS011;49409;55.708;37.522;2022-07-18T06:35:08;4.47;;;2.13;;
63284;SDS011;49409;55.708;37.522;2022-07-18T06:37:34;4.15;;;2.30;;
63284;SDS011;49409;55.708;37.522;2022-07-18T06:40:00;4.75;;;2.67;;
63284;SDS011;49409;55.708;37.522;2022-07-18T06:42:26;2.75;;;2.08;;
63284;SDS011;49409;55.708;37.522;2022-07-18T06:44:51;5.40;;;2.53;;
63284;SDS011;49409;55.708;37.522;2022-07-18T06:47:17;6.78;;;2.47;;
63284;SDS011;49409;55.708;37.522;2022-07-18T06:49:42;4.30;;;2.15;;
63284;SDS011;49409;55.708;37.522;2022-07-18T06:52:08;4.93;;;2.42;;
63284;SDS011;49409;55.708;37.522;2022-07-18T06:54:36;6.22;;;2.30;;
63284;SDS011;49409;55.708;37.522;2022-07-18T06:57:04;4.32;;;2.53;;
63284;SDS011;49409;55.708;37.522;2022-07-18T06:59:32;4.38;;;2.22;;
63284;SDS011;49409;55.708;37.522;2022-07-18T07:01:57;4.30;;;2.10;;
63284;SDS011;49409;55.708;37.522;2022-07-18T07:04:23;4.03;;;2.10;;
63284;SDS011;49409;55.708;37.522;2022-07-18T07:06:48;2.78;;;1.75;;
63284;SDS011;49409;55.708;37.522;2022-07-18T07:09:14;3.67;;;2.10;;
63284;SDS011;49409;55.708;37.522;2022-07-18T07:11:39;3.22;;;2.15;;
63284;SDS011;49409;55.708;37.522;2022-07-18T07:14:05;5.90;;;2.58;;
63284;SDS011;49409;55.708;37.522;2022-07-18T07:16:30;4.13;;;2.70;;
63284;SDS011;49409;55.708;37.522;2022-07-18T07:18:56;4.53;;;2.30;;
63284;SDS011;49409;55.708;37.522;2022-07-18T07:21:21;4.43;;;2.20;;
63284;SDS011;49409;55.708;37.522;2022-07-18T07:23:47;4.22;;;2.30;;
63284;SDS011;49409;55.708;37.522;2022-07-18T07:26:12;3.55;;;2.00;;
63284;SDS011;49409;55.708;37.522;2022-07-18T07:28:38;8.43;;;2.97;;
63284;SDS011;49409;55.708;37.522;2022-07-18T07:31:03;6.82;;;3.60;;
63284;SDS011;49409;55.708;37.522;2022-07-18T07:33:30;7.45;;;3.20;;
63284;SDS011;49409;55.708;37.522;2022-07-18T07:35:56;5.97;;;3.45;;
63284;SDS011;49409;55.708;37.522;2022-07-18T07:38:22;5.22;;;2.85;;
63284;SDS011;49409;55.708;37.522;2022-07-18T07:40:53;5.63;;;3.00;;
63284;SDS011;49409;55.708;37.522;2022-07-18T07:43:18;6.45;;;3.03;;
63284;SDS011;49409;55.708;37.522;2022-07-18T07:45:48;5.25;;;3.15;;
63284;SDS011;49409;55.708;37.522;2022-07-18T07:48:14;5.78;;;3.08;;
63284;SDS011;49409;55.708;37.522;2022-07-18T07:50:40;8.35;;;3.08;;
63284;SDS011;49409;55.708;37.522;2022-07-18T07:53:06;6.20;;;3.17;;
63284;SDS011;49409;55.708;37.522;2022-07-18T07:55:32;7.28;;;3.38;;
63284;SDS011;49409;55.708;37.522;2022-07-18T07:57:57;6.25;;;3.20;;
63284;SDS011;49409;55.708;37.522;2022-07-18T08:00:23;6.10;;;3.85;;
63284;SDS011;49409;55.708;37.522;2022-07-18T08:02:50;7.22;;;3.38;;
63284;SDS011;49409;55.708;37.522;2022-07-18T08:05:17;6.20;;;3.70;;
63284;SDS011;49409;55.708;37.522;2022-07-18T08:07:42;7.60;;;3.47;;
63284;SDS011;49409;55.708;37.522;2022-07-18T08:10:08;5.55;;;3.45;;
63284;SDS011;49409;55.708;37.522;2022-07-18T08:12:33;5.78;;;3.28;;
63284;SDS011;49409;55.708;37.522;2022-07-18T08:14:59;6.50;;;3.30;;
63284;SDS011;49409;55.708;37.522;2022-07-18T08:17:24;6.45;;;3.15;;
63284;SDS011;49409;55.708;37.522;2022-07-18T08:19:50;6.50;;;3.38;;
63284;SDS011;49409;55.708;37.522;2022-07-18T08:22:15;5.30;;;3.00;;
63284;SDS011;49409;55.708;37.522;2022-07-18T08:24:42;4.72;;;2.58;;
63284;SDS011;49409;55.708;37.522;2022-07-18T08:27:08;3.92;;;2.78;;
63284;SDS011;49409;55.708;37.522;2022-07-18T08:29:34;4.28;;;2.60;;
63284;SDS011;49409;55.708;37.522;2022-07-18T08:32:00;6.22;;;2.75;;
63284;SDS011;49409;55.708;37.522;2022-07-18T08:34:26;3.75;;;2.40;;
63284;SDS011;49409;55.708;37.522;2022-07-18T08:36:51;5.15;;;2.60;;
63284;SDS011;49409;55.708;37.522;2022-07-18T08:39:17;4.80;;;2.45;;
63284;SDS011;49409;55.708;37.522;2022-07-18T08:41:43;5.10;;;2.95;;
63284;SDS011;49409;55.708;37.522;2022-07-18T08:44:12;5.25;;;3.10;;
63284;SDS011;49409;55.708;37.522;2022-07-18T08:46:42;6.30;;;3.40;;
63284;SDS011;49409;55.708;37.522;2022-07-18T08:49:13;5.40;;;2.50;;
63284;SDS011;49409;55.708;37.522;2022-07-18T08:51:39;5.07;;;2.45;;
63284;SDS011;49409;55.708;37.522;2022-07-18T08:54:07;5.55;;;2.20;;
63284;SDS011;49409;55.708;37.522;2022-07-18T08:56:33;4.38;;;2.05;;
63284;SDS011;49409;55.708;37.522;2022-07-18T08:59:02;4.65;;;2.42;;
63284;SDS011;49409;55.708;37.522;2022-07-18T09:01:28;4.85;;;2.67;;
63284;SDS011;49409;55.708;37.522;2022-07-18T09:03:54;3.85;;;2.58;;
63284;SDS011;49409;55.708;37.522;2022-07-18T09:06:45;6.38;;;2.58;;
63284;SDS011;49409;55.708;37.522;2022-07-18T09:09:14;5.40;;;2.97;;
63284;SDS011;49409;55.708;37.522;2022-07-18T09:14:30;4.90;;;2.80;;
63284;SDS011;49409;55.708;37.522;2022-07-18T09:16:59;3.17;;;2.10;;
63284;SDS011;49409;55.708;37.522;2022-07-18T09:19:26;3.53;;;2.17;;
63284;SDS011;49409;55.708;37.522;2022-07-18T09:21:52;3.28;;;2.05;;
63284;SDS011;49409;55.708;37.522;2022-07-18T09:24:18;4.68;;;2.35;;
63284;SDS011;49409;55.708;37.522;2022-07-18T09:26:43;5.22;;;2.38;;
63284;SDS011;49409;55.708;37.522;2022-07-18T09:29:14;5.45;;;2.85;;
63284;SDS011;49409;55.708;37.522;2022-07-18T09:31:47;5.47;;;1.90;;
63284;SDS011;49409;55.708;37.522;2022-07-18T09:34:14;2.47;;;1.92;;
63284;SDS011;49409;55.708;37.522;2022-07-18T09:36:56;3.70;;;1.98;;
63284;SDS011;49409;55.708;37.522;2022-07-18T09:39:23;3.38;;;1.75;;
63284;SDS011;49409;55.708;37.522;2022-07-18T09:41:48;3.63;;;2.33;;
63284;SDS011;49409;55.708;37.522;2022-07-18T09:44:18;4.22;;;1.90;;
63284;SDS011;49409;55.708;37.522;2022-07-18T09:47:02;4.18;;;2.25;;
63284;SDS011;49409;55.708;37.522;2022-07-18T09:49:29;5.00;;;2.20;;
63284;SDS011;49409;55.708;37.522;2022-07-18T09:52:06;3.70;;;2.20;;
63284;SDS011;49409;55.708;37.522;2022-07-18T09:57:04;4.22;;;1.85;;
63284;SDS011;49409;55.708;37.522;2022-07-18T09:59:29;3.42;;;1.73;;
63284;SDS011;49409;55.708;37.522;2022-07-18T10:01:56;4.65;;;2.00;;
63284;SDS011;49409;55.708;37.522;2022-07-18T10:04:21;3.90;;;1.95;;
63284;SDS011;49409;55.708;37.522;2022-07-18T10:06:47;3.47;;;1.80;;
63284;SDS011;49409;55.708;37.522;2022-07-18T10:09:13;4.43;;;2.03;;
63284;SDS011;49409;55.708;37.522;2022-07-18T10:11:39;3.35;;;1.92;;
63284;SDS011;49409;55.708;37.522;2022-07-18T10:14:07;2.88;;;1.92;;
63284;SDS011;49409;55.708;37.522;2022-07-18T10:16:34;4.68;;;2.05;;
63284;SDS011;49409;55.708;37.522;2022-07-18T10:19:00;4.93;;;1.70;;
63284;SDS011;49409;55.708;37.522;2022-07-18T10:21:25;3.70;;;1.85;;
63284;SDS011;49409;55.708;37.522;2022-07-18T10:23:54;3.70;;;1.98;;
63284;SDS011;49409;55.708;37.522;2022-07-18T10:31:22;4.30;;;1.83;;
63284;SDS011;49409;55.708;37.522;2022-07-18T10:33:50;4.13;;;1.75;;
63284;SDS011;49409;55.708;37.522;2022-07-18T10:36:17;2.70;;;1.48;;
63284;SDS011;49409;55.708;37.522;2022-07-18T10:57:33;5.03;;;2.47;;
63284;SDS011;49409;55.708;37.522;2022-07-18T10:59:59;4.47;;;2.63;;
63284;SDS011;49409;55.708;37.522;2022-07-18T11:02:31;4.90;;;2.60;;
63284;SDS011;49409;55.708;37.522;2022-07-18T11:04:58;6.95;;;2.63;;
63284;SDS011;49409;55.708;37.522;2022-07-18T11:07:24;4.35;;;2.47;;
63284;SDS011;49409;55.708;37.522;2022-07-18T11:09:49;5.90;;;2.75;;
63284;SDS011;49409;55.708;37.522;2022-07-18T11:12:24;6.07;;;2.45;;
63284;SDS011;49409;55.708;37.522;2022-07-18T11:25:18;3.53;;;2.53;;
63284;SDS011;49409;55.708;37.522;2022-07-18T11:27:44;4.55;;;2.20;;
63284;SDS011;49409;55.708;37.522;2022-07-18T11:30:22;3.95;;;2.30;;
63284;SDS011;49409;55.708;37.522;2022-07-18T11:32:49;3.65;;;2.22;;
63284;SDS011;49409;55.708;37.522;2022-07-18T11:35:20;5.93;;;2.40;;
63284;SDS011;49409;55.708;37.522;2022-07-18T11:37:47;5.13;;;2.80;;
63284;SDS011;49409;55.708;37.522;2022-07-18T11:40:15;4.03;;;2.28;;
63284;SDS011;49409;55.708;37.522;2022-07-18T11:42:41;4.85;;;2.35;;
63284;SDS011;49409;55.708;37.522;2022-07-18T11:45:08;4.60;;;2.40;;
63284;SDS011;49409;55.708;37.522;2022-07-18T11:47:53;4.90;;;2.10;;
63284;SDS011;49409;55.708;37.522;2022-07-18T11:50:35;5.75;;;2.35;;
63284;SDS011;49409;55.708;37.522;2022-07-18T11:53:02;2.63;;;1.60;;
63284;SDS011;49409;55.708;37.522;2022-07-18T11:55:34;4.10;;;1.85;;
63284;SDS011;49409;55.708;37.522;2022-07-18T12:00:33;3.25;;;1.77;;
63284;SDS011;49409;55.708;37.522;2022-07-18T12:02:59;4.47;;;1.90;;
63284;SDS011;49409;55.708;37.522;2022-07-18T12:05:31;4.00;;;1.70;;
63284;SDS011;49409;55.708;37.522;2022-07-18T12:07:58;3.13;;;1.98;;
63284;SDS011;49409;55.708;37.522;2022-07-18T12:10:23;3.67;;;2.17;;
63284;SDS011;49409;55.708;37.522;2022-07-18T12:12:49;4.28;;;2.20;;
63284;SDS011;49409;55.708;37.522;2022-07-18T12:15:15;4.82;;;2.22;;
63284;SDS011;49409;55.708;37.522;2022-07-18T12:17:46;3.08;;;2.08;;
63284;SDS011;49409;55.708;37.522;2022-07-18T12:20:19;4.85;;;2.05;;
63284;SDS011;49409;55.708;37.522;2022-07-18T12:25:57;2.38;;;1.60;;
63284;SDS011;49409;55.708;37.522;2022-07-18T12:28:23;3.13;;;1.80;;
63284;SDS011;49409;55.708;37.522;2022-07-18T12:30:51;2.78;;;1.85;;
63284;SDS011;49409;55.708;37.522;2022-07-18T12:33:16;4.60;;;1.77;;
63284;SDS011;49409;55.708;37.522;2022-07-18T12:35:42;3.05;;;1.55;;
63284;SDS011;49409;55.708;37.522;2022-07-18T12:38:09;2.90;;;1.40;;
63284;SDS011;49409;55.708;37.522;2022-07-18T12:40:52;2.10;;;1.38;;
63284;SDS011;49409;55.708;37.522;2022-07-18T12:43:28;3.35;;;1.35;;
63284;SDS011;49409;55.708;37.522;2022-07-18T12:45:58;2.40;;;1.42;;
63284;SDS011;49409;55.708;37.522;2022-07-18T12:48:27;3.60;;;1.63;;
63284;SDS011;49409;55.708;37.522;2022-07-18T12:50:57;1.80;;;1.23;;
63284;SDS011;49409;55.708;37.522;2022-07-18T12:53:32;2.17;;;1.08;;
63284;SDS011;49409;55.708;37.522;2022-07-18T12:56:00;1.83;;;1.30;;
63284;SDS011;49409;55.708;37.522;2022-07-18T12:58:25;2.05;;;1.50;;
63284;SDS011;49409;55.708;37.522;2022-07-18T13:00:51;2.47;;;1.65;;
63284;SDS011;49409;55.708;37.522;2022-07-18T13:03:17;2.40;;;1.60;;
63284;SDS011;49409;55.708;37.522;2022-07-18T13:05:43;2.28;;;1.50;;
63284;SDS011;49409;55.708;37.522;2022-07-18T13:08:09;2.85;;;1.60;;
63284;SDS011;49409;55.708;37.522;2022-07-18T13:10:35;2.58;;;1.67;;
63284;SDS011;49409;55.708;37.522;2022-07-18T13:13:04;4.03;;;1.60;;
63284;SDS011;49409;55.708;37.522;2022-07-18T13:15:31;3.58;;;1.95;;
63284;SDS011;49409;55.708;37.522;2022-07-18T13:17:57;2.50;;;1.50;;
63284;SDS011;49409;55.708;37.522;2022-07-18T13:20:23;3.22;;;1.98;;
63284;SDS011;49409;55.708;37.522;2022-07-18T13:22:50;3.40;;;1.85;;
63284;SDS011;49409;55.708;37.522;2022-07-18T13:25:16;3.45;;;1.80;;
63284;SDS011;49409;55.708;37.522;2022-07-18T13:27:41;5.72;;;1.85;;
63284;SDS011;49409;55.708;37.522;2022-07-18T13:30:07;4.53;;;2.10;;
63284;SDS011;49409;55.708;37.522;2022-07-18T13:32:34;3.50;;;1.85;;
63284;SDS011;49409;55.708;37.522;2022-07-18T13:35:00;3.08;;;2.17;;
63284;SDS011;49409;55.708;37.522;2022-07-18T13:37:26;4.35;;;1.88;;
63284;SDS011;49409;55.708;37.522;2022-07-18T13:39:52;3.42;;;1.67;;
63284;SDS011;49409;55.708;37.522;2022-07-18T13:42:17;3.95;;;1.60;;
63284;SDS011;49409;55.708;37.522;2022-07-18T13:44:43;2.92;;;1.73;;
63284;SDS011;49409;55.708;37.522;2022-07-18T13:47:15;2.50;;;1.70;;
63284;SDS011;49409;55.708;37.522;2022-07-18T13:49:41;2.47;;;1.50;;
63284;SDS011;49409;55.708;37.522;2022-07-18T13:52:07;7.18;;;2.72;;
63284;SDS011;49409;55.708;37.522;2022-07-18T13:54:32;2.33;;;1.67;;
63284;SDS011;49409;55.708;37.522;2022-07-18T13:56:58;2.15;;;1.20;;
63284;SDS011;49409;55.708;37.522;2022-07-18T13:59:25;3.53;;;1.80;;
63284;SDS011;49409;55.708;37.522;2022-07-18T14:01:50;2.65;;;1.77;;
63284;SDS011;49409;55.708;37.522;2022-07-18T14:04:16;2.60;;;1.65;;
63284;SDS011;49409;55.708;37.522;2022-07-18T14:06:43;1.95;;;1.40;;
63284;SDS011;49409;55.708;37.522;2022-07-18T14:09:09;2.08;;;1.30;;
63284;SDS011;49409;55.708;37.522;2022-07-18T14:11:35;4.07;;;1.63;;
63284;SDS011;49409;55.708;37.522;2022-07-18T14:14:01;1.63;;;1.30;;
63284;SDS011;49409;55.708;37.522;2022-07-18T14:16:28;2.22;;;1.50;;
63284;SDS011;49409;55.708;37.522;2022-07-18T14:18:53;3.13;;;2.08;;
63284;SDS011;49409;55.708;37.522;2022-07-18T14:21:19;2.92;;;1.33;;
63284;SDS011;49409;55.708;37.522;2022-07-18T14:23:44;3.05;;;1.73;;
63284;SDS011;49409;55.708;37.522;2022-07-18T14:26:10;1.92;;;1.50;;
63284;SDS011;49409;55.708;37.522;2022-07-18T14:28:35;2.40;;;1.30;;
63284;SDS011;49409;55.708;37.522;2022-07-18T14:31:01;2.40;;;1.45;;
63284;SDS011;49409;55.708;37.522;2022-07-18T14:33:27;4.55;;;1.88;;
63284;SDS011;49409;55.708;37.522;2022-07-18T14:35:52;2.78;;;1.30;;
63284;SDS011;49409;55.708;37.522;2022-07-18T14:38:18;3.20;;;1.50;;
63284;SDS011;49409;55.708;37.522;2022-07-18T14:40:43;3.60;;;1.40;;
63284;SDS011;49409;55.708;37.522;2022-07-18T14:43:09;2.75;;;1.30;;
63284;SDS011;49409;55.708;37.522;2022-07-18T14:45:34;2.95;;;1.52;;
63284;SDS011;49409;55.708;37.522;2022-07-18T14:48:00;4.95;;;1.60;;
63284;SDS011;49409;55.708;37.522;2022-07-18T14:50:25;3.72;;;1.67;;
63284;SDS011;49409;55.708;37.522;2022-07-18T14:52:51;5.20;;;3.50;;
63284;SDS011;49409;55.708;37.522;2022-07-18T14:55:16;5.07;;;1.80;;
63284;SDS011;49409;55.708;37.522;2022-07-18T14:57:42;4.70;;;1.67;;
63284;SDS011;49409;55.708;37.522;2022-07-18T15:00:08;4.63;;;1.75;;
63284;SDS011;49409;55.708;37.522;2022-07-18T15:02:35;2.67;;;1.35;;
63284;SDS011;49409;55.708;37.522;2022-07-18T15:05:02;4.00;;;1.90;;
63284;SDS011;49409;55.708;37.522;2022-07-18T15:07:28;4.03;;;1.70;;
63284;SDS011;49409;55.708;37.522;2022-07-18T15:09:54;3.65;;;1.27;;
63284;SDS011;49409;55.708;37.522;2022-07-18T15:12:20;3.83;;;1.50;;
63284;SDS011;49409;55.708;37.522;2022-07-18T15:14:46;3.53;;;1.60;;